Terminal Aerodrome Forecast
Issued by NWS Newport/Morehead City, NC

Home | Current Version | Previous Version | Graphics & Text | Print | Product List | Glossary On
Versions: 1 2 3 4 5 6 7 8 9 10 11 12 13 14 15 16 17 18 19
403
FTUS42 KMHX 241124
TAFEWN
TAF
KEWN 241124Z 2412/2512 05010G15KT 5SM -SHRA SCT004 OVC005
     FM241500 12013G24KT 5SM -SHRA SCT020 OVC035
     FM250100 10014G23KT 2SM +SHRA VCTS SCT007 OVC020CB
     FM250900 12010G15KT 5SM -SHRA SCT007 OVC015=

USA.gov is the U.S. government's official web portal to all federal, state and local government web resources and services.